Time;durP1;ratioP1;P1;durP2;ratioP2;P2;SDS_P1;SDS_P2;PMS_P1;PMS_P2;Temp;Humidity;BMP_temperature;BMP_pressure;BME280_temperature;BME280_humidity;BME280_pressure;Samples;Min_cycle;Max_cycle;Signal;HPM_P1;HPM_P2
2021/05/11 00:01:15;;;;;;;9.60;8.63;;;13.70;68.90;;;;;;5194142;28;20042;-67
2021/05/11 00:03:47;;;;;;;10.55;8.57;;;13.70;68.80;;;;;;5186059;28;20038;-68
2021/05/11 00:06:19;;;;;;;9.48;8.20;;;13.70;69.50;;;;;;5186601;28;20045;-64
2021/05/11 00:08:50;;;;;;;9.95;8.23;;;13.70;69.40;;;;;;5185861;28;20029;-65
2021/05/11 00:11:22;;;;;;;9.25;8.45;;;13.70;69.10;;;;;;5189424;28;20455;-65
2021/05/11 00:13:53;;;;;;;9.32;8.43;;;13.70;70.30;;;;;;5187801;28;20046;-65
2021/05/11 00:16:25;;;;;;;9.63;8.73;;;13.60;70.30;;;;;;5187581;28;20115;-65
2021/05/11 00:18:57;;;;;;;9.50;8.70;;;13.60;70.30;;;;;;5186695;28;20052;-65
2021/05/11 00:21:29;;;;;;;8.95;8.05;;;13.50;70.70;;;;;;5188011;28;20133;-64
2021/05/11 00:24:00;;;;;;;9.02;8.13;;;13.50;70.00;;;;;;5188029;28;20109;-65
2021/05/11 00:26:38;;;;;;;8.88;8.07;;;13.50;70.30;;;;;;5185126;28;20041;-64
2021/05/11 00:29:09;;;;;;;9.35;8.45;;;13.50;69.50;;;;;;5187458;28;20045;-64
2021/05/11 00:31:40;;;;;;;9.50;8.60;;;13.60;69.70;;;;;;5187163;28;20418;-64
2021/05/11 00:34:12;;;;;;;9.00;8.18;;;13.60;70.20;;;;;;5193395;28;20081;-64
2021/05/11 00:36:43;;;;;;;9.55;8.75;;;13.60;70.00;;;;;;5188935;28;20175;-65
2021/05/11 00:39:15;;;;;;;9.25;8.35;;;13.60;70.70;;;;;;5189046;28;20052;-64
2021/05/11 00:41:47;;;;;;;9.45;8.50;;;13.50;72.20;;;;;;5186181;28;20049;-65
2021/05/11 00:44:23;;;;;;;9.60;8.70;;;13.50;71.70;;;;;;5187882;28;20115;-65
2021/05/11 00:47:04;;;;;;;9.70;8.90;;;13.60;71.20;;;;;;5188271;28;20042;-65
2021/05/11 00:49:37;;;;;;;9.80;8.85;;;13.60;71.20;;;;;;5187982;28;20044;-65
2021/05/11 00:52:08;;;;;;;11.27;8.90;;;13.50;70.50;;;;;;5187702;28;20044;-64
2021/05/11 00:54:40;;;;;;;9.45;8.60;;;13.30;70.60;;;;;;5190036;28;20053;-64
2021/05/11 00:57:12;;;;;;;9.57;8.60;;;13.30;71.00;;;;;;5184157;28;20038;-64
2021/05/11 00:59:44;;;;;;;9.95;8.95;;;13.20;71.30;;;;;;5185014;28;20050;-64
2021/05/11 01:02:16;;;;;;;11.18;8.40;;;13.20;71.20;;;;;;5186812;28;20046;-65
2021/05/11 01:04:47;;;;;;;13.50;8.93;;;13.20;71.60;;;;;;5189773;28;20120;-65
2021/05/11 01:07:19;;;;;;;10.18;8.82;;;13.20;71.50;;;;;;5192387;28;20091;-65
2021/05/11 01:09:50;;;;;;;9.77;8.40;;;13.20;71.40;;;;;;5186394;28;20080;-65
2021/05/11 01:12:22;;;;;;;9.80;8.90;;;13.20;71.60;;;;;;5186717;28;20046;-64
2021/05/11 01:14:53;;;;;;;9.35;8.55;;;13.20;71.50;;;;;;5185805;28;20100;-64
2021/05/11 01:17:33;;;;;;;9.50;8.43;;;13.20;72.00;;;;;;5193207;28;20050;-67
2021/05/11 01:20:14;;;;;;;10.35;9.40;;;13.30;71.70;;;;;;5187954;28;20510;-65
2021/05/11 01:25:37;;;;;;;11.27;8.50;;;13.30;71.40;;;;;;5185020;28;20134;-65
2021/05/11 01:47:30;;;;;;;10.32;9.25;;;13.30;71.90;;;;;;5190118;28;20088;-65
2021/05/11 01:50:12;;;;;;;10.60;9.32;;;13.30;71.80;;;;;;5188017;28;20397;-64
2021/05/11 02:22:55;;;;;;;10.85;9.30;;;13.40;72.30;;;;;;5177324;28;20082;-64
2021/05/11 02:25:27;;;;;;;9.88;8.98;;;13.40;72.60;;;;;;5170766;28;20046;-66
2021/05/11 02:27:58;;;;;;;12.57;8.68;;;13.40;71.80;;;;;;5206011;28;20089;-66
2021/05/11 02:30:30;;;;;;;10.48;9.20;;;13.40;71.80;;;;;;5192538;28;20125;-67
2021/05/11 02:33:02;;;;;;;9.63;8.60;;;13.30;71.50;;;;;;5207038;28;20476;-66
2021/05/11 02:35:34;;;;;;;9.30;8.38;;;13.30;71.50;;;;;;5193401;28;20042;-66
2021/05/11 02:38:06;;;;;;;12.98;8.80;;;13.20;72.30;;;;;;5189783;28;20679;-66
2021/05/11 02:40:38;;;;;;;9.57;8.57;;;13.20;72.00;;;;;;5189607;28;20065;-66
2021/05/11 02:43:17;;;;;;;11.27;8.73;;;13.20;71.80;;;;;;5187754;28;20514;-66
2021/05/11 02:45:48;;;;;;;9.80;8.32;;;13.20;71.80;;;;;;5197502;28;20091;-67
2021/05/11 02:48:20;;;;;;;10.10;8.25;;;13.20;71.60;;;;;;5187028;28;20048;-66
2021/05/11 02:50:51;;;;;;;9.45;8.40;;;13.30;71.80;;;;;;5188250;28;20533;-67
2021/05/11 02:53:23;;;;;;;10.55;9.02;;;13.30;72.10;;;;;;5187983;28;20373;-67
2021/05/11 02:55:54;;;;;;;9.68;8.63;;;13.30;73.10;;;;;;5188358;28;20092;-67
2021/05/11 02:58:26;;;;;;;10.43;9.52;;;13.30;72.00;;;;;;5186609;28;20054;-67
2021/05/11 03:00:57;;;;;;;10.38;9.23;;;13.30;74.40;;;;;;5192643;28;20065;-66
2021/05/11 03:03:29;;;;;;;10.55;9.55;;;13.10;74.90;;;;;;5194409;28;20057;-67
2021/05/11 03:06:00;;;;;;;10.43;9.48;;;13.10;76.40;;;;;;5186742;28;20563;-67
2021/05/11 03:08:31;;;;;;;10.20;9.20;;;13.00;76.90;;;;;;5183810;28;20073;-67
2021/05/11 03:11:03;;;;;;;11.20;10.20;;;12.90;76.40;;;;;;5182911;28;20038;-66
2021/05/11 03:13:34;;;;;;;10.35;9.25;;;13.00;75.80;;;;;;5192152;28;20050;-67
2021/05/11 03:16:06;;;;;;;11.65;9.52;;;13.00;75.30;;;;;;5188104;28;20141;-66
2021/05/11 03:18:37;;;;;;;10.25;9.30;;;13.00;75.00;;;;;;5187486;28;20049;-66
2021/05/11 03:21:09;;;;;;;10.45;9.32;;;13.00;74.60;;;;;;5172797;28;20051;-66
2021/05/11 03:23:40;;;;;;;10.95;9.95;;;13.00;73.90;;;;;;5187342;28;20129;-67
2021/05/11 03:26:11;;;;;;;9.88;8.98;;;13.00;74.10;;;;;;5187461;28;20049;-66
2021/05/11 03:28:43;;;;;;;9.98;8.98;;;13.00;75.00;;;;;;5194226;28;20052;-67
2021/05/11 03:31:14;;;;;;;10.07;9.00;;;12.90;74.40;;;;;;5186606;28;20124;-66
2021/05/11 03:33:46;;;;;;;10.10;9.10;;;12.80;73.90;;;;;;5189836;28;20111;-67
2021/05/11 03:36:17;;;;;;;9.68;8.65;;;12.80;73.80;;;;;;5189805;28;20561;-66
2021/05/11 03:38:51;;;;;;;9.82;8.90;;;12.80;73.40;;;;;;5190358;28;20582;-67
2021/05/11 03:41:27;;;;;;;10.13;9.13;;;12.70;73.30;;;;;;5187205;28;20083;-67
2021/05/11 03:44:07;;;;;;;12.20;8.98;;;12.60;73.60;;;;;;5189982;28;20057;-67
2021/05/11 03:46:38;;;;;;;10.20;9.18;;;12.50;73.80;;;;;;5203721;28;20048;-67
2021/05/11 03:49:10;;;;;;;9.13;8.23;;;12.40;73.80;;;;;;5191671;28;20044;-67
2021/05/11 03:51:43;;;;;;;9.77;8.77;;;12.20;74.00;;;;;;5188886;28;20052;-67
2021/05/11 03:54:15;;;;;;;9.93;8.45;;;12.20;74.00;;;;;;5184832;28;20041;-67
2021/05/11 03:56:47;;;;;;;10.82;8.15;;;12.20;74.00;;;;;;5189737;28;20831;-68
2021/05/11 03:59:21;;;;;;;9.93;7.43;;;12.00;74.40;;;;;;5189214;28;20126;-68
2021/05/11 04:01:53;;;;;;;7.80;7.07;;;12.10;74.20;;;;;;5187337;28;20464;-68
2021/05/11 04:04:25;;;;;;;8.05;6.75;;;12.00;75.10;;;;;;5188594;28;20041;-68
2021/05/11 04:06:57;;;;;;;10.60;7.40;;;12.00;75.30;;;;;;5183059;28;20112;-68
2021/05/11 04:17:24;;;;;;;8.65;7.85;;;11.90;75.10;;;;;;5192981;28;20048;-68
2021/05/11 04:19:56;;;;;;;8.70;7.70;;;11.90;75.20;;;;;;5190451;28;20046;-68
2021/05/11 04:22:27;;;;;;;9.20;8.30;;;11.90;75.50;;;;;;5190009;28;20076;-68
2021/05/11 04:24:59;;;;;;;10.07;8.75;;;12.00;75.40;;;;;;5184677;28;20116;-69
2021/05/11 04:27:31;;;;;;;12.48;8.75;;;12.10;75.40;;;;;;5187029;28;20049;-70
2021/05/11 04:30:06;;;;;;;9.35;8.45;;;12.10;74.60;;;;;;5190430;28;20042;-68
2021/05/11 04:32:38;;;;;;;10.48;9.32;;;12.20;74.80;;;;;;5187719;28;20060;-68
2021/05/11 04:35:10;;;;;;;12.77;9.00;;;12.30;75.10;;;;;;5181436;28;20064;-68
2021/05/11 04:37:43;;;;;;;10.38;9.27;;;12.30;75.00;;;;;;5190904;28;20045;-68
2021/05/11 04:40:16;;;;;;;10.75;8.77;;;12.30;75.80;;;;;;5186996;28;20404;-68
2021/05/11 04:42:48;;;;;;;9.68;8.73;;;12.40;74.70;;;;;;5186364;28;20058;-68
2021/05/11 04:45:22;;;;;;;9.98;8.60;;;12.50;74.20;;;;;;5187798;28;20046;-68
2021/05/11 04:47:54;;;;;;;12.23;9.05;;;12.60;74.50;;;;;;5185908;28;20041;-69
2021/05/11 04:50:27;;;;;;;10.85;8.63;;;12.70;75.00;;;;;;5183331;28;20095;-68
2021/05/11 04:53:00;;;;;;;13.50;9.00;;;12.90;74.30;;;;;;5187435;28;20041;-68
2021/05/11 04:55:33;;;;;;;11.25;9.13;;;13.00;74.10;;;;;;5184995;28;20136;-69
2021/05/11 04:58:06;;;;;;;12.15;8.73;;;13.10;73.60;;;;;;5202177;28;20064;-68
2021/05/11 05:00:38;;;;;;;10.48;8.90;;;13.20;73.80;;;;;;5219897;28;20065;-69
2021/05/11 05:03:14;;;;;;;10.05;8.55;;;13.20;73.50;;;;;;5187405;28;20534;-68
2021/05/11 05:05:46;;;;;;;9.40;8.43;;;13.30;73.20;;;;;;5184957;28;20034;-68
2021/05/11 05:08:18;;;;;;;10.75;8.73;;;13.40;74.00;;;;;;5186362;28;20530;-68
2021/05/11 05:10:50;;;;;;;9.48;8.48;;;13.40;73.80;;;;;;5186412;28;20041;-69
2021/05/11 05:13:25;;;;;;;13.35;8.68;;;13.40;73.30;;;;;;5189244;28;20130;-68
2021/05/11 05:15:58;;;;;;;11.20;8.57;;;13.40;74.10;;;;;;5185098;28;20522;-68
2021/05/11 05:18:30;;;;;;;11.88;8.90;;;13.30;73.40;;;;;;5190855;28;20042;-68
2021/05/11 05:21:06;;;;;;;11.80;9.15;;;13.30;74.80;;;;;;5192970;28;20034;-68
2021/05/11 05:23:45;;;;;;;9.77;8.80;;;13.00;75.10;;;;;;5191174;28;20042;-68
2021/05/11 05:26:21;;;;;;;14.82;8.90;;;13.00;75.80;;;;;;5190795;28;20070;-68
2021/05/11 05:28:54;;;;;;;12.07;9.70;;;13.10;75.20;;;;;;5190251;28;20052;-68
2021/05/11 05:31:26;;;;;;;10.98;9.07;;;13.10;75.40;;;;;;5198469;28;20041;-68
2021/05/11 05:33:58;;;;;;;10.38;8.63;;;13.10;75.70;;;;;;5188586;28;20045;-68
2021/05/11 05:36:30;;;;;;;12.45;9.68;;;13.20;75.80;;;;;;5190756;28;20038;-68
2021/05/11 05:39:03;;;;;;;13.10;9.43;;;13.20;76.80;;;;;;5189094;28;20050;-68
2021/05/11 05:41:36;;;;;;;10.70;9.40;;;13.20;76.30;;;;;;5190795;28;20057;-71
2021/05/11 05:44:08;;;;;;;13.10;10.23;;;13.20;77.00;;;;;;5188232;28;20894;-68
2021/05/11 05:46:40;;;;;;;11.70;9.20;;;13.10;78.00;;;;;;5189815;28;20042;-69
2021/05/11 05:49:12;;;;;;;11.70;9.52;;;13.10;78.50;;;;;;5190488;28;20045;-68
2021/05/11 05:51:47;;;;;;;9.68;8.77;;;13.20;77.70;;;;;;5190619;28;20048;-67
2021/05/11 05:54:19;;;;;;;10.55;9.45;;;13.50;78.20;;;;;;5197782;28;20060;-67
2021/05/11 05:56:51;;;;;;;11.23;9.35;;;13.70;77.60;;;;;;5189908;28;20045;-66
2021/05/11 05:59:23;;;;;;;9.70;8.80;;;13.90;77.60;;;;;;5195212;28;20061;-64
2021/05/11 06:01:57;;;;;;;11.38;9.50;;;14.10;76.80;;;;;;5190828;28;20108;-63
2021/05/11 06:04:29;;;;;;;12.70;9.40;;;14.30;75.10;;;;;;5193350;28;20065;-66
2021/05/11 06:07:00;;;;;;;10.40;9.23;;;14.40;74.10;;;;;;5187287;28;20148;-67
2021/05/11 06:09:32;;;;;;;9.52;8.50;;;14.30;73.80;;;;;;5203461;28;20103;-65
2021/05/11 06:12:19;;;;;;;10.85;9.75;;;14.40;74.10;;;;;;5191097;28;20515;-65
2021/05/11 06:17:38;;;;;;;9.98;8.68;;;14.50;72.10;;;;;;5188296;28;20057;-66
2021/05/11 06:20:14;;;;;;;10.95;9.25;;;14.60;74.70;;;;;;5190238;28;20045;-64
2021/05/11 06:22:45;;;;;;;11.77;9.35;;;14.60;73.60;;;;;;5198143;28;20069;-64
2021/05/11 06:25:17;;;;;;;10.77;9.50;;;14.60;74.20;;;;;;5188186;28;20064;-65
2021/05/11 06:28:00;;;;;;;11.13;9.80;;;14.60;73.90;;;;;;5189666;28;20710;-64
2021/05/11 06:30:32;;;;;;;12.05;8.88;;;14.60;73.40;;;;;;5187403;28;20111;-64
2021/05/11 06:33:06;;;;;;;9.98;8.98;;;14.50;72.90;;;;;;5187709;28;20038;-64
2021/05/11 06:35:38;;;;;;;10.70;9.18;;;14.50;73.40;;;;;;5190828;28;20134;-64
2021/05/11 06:38:10;;;;;;;10.35;9.38;;;14.50;74.20;;;;;;5180017;28;20506;-64
2021/05/11 06:40:42;;;;;;;10.95;9.30;;;14.50;73.80;;;;;;5201733;28;20038;-64
2021/05/11 06:43:21;;;;;;;9.95;8.95;;;14.50;73.10;;;;;;5187295;28;20045;-64
2021/05/11 06:48:44;;;;;;;12.05;9.10;;;14.60;73.80;;;;;;5185124;28;20041;-65
2021/05/11 06:53:58;;;;;;;9.95;8.95;;;14.60;73.10;;;;;;5188539;28;20049;-64
2021/05/11 06:56:31;;;;;;;11.07;9.75;;;14.60;73.70;;;;;;5186553;28;20104;-67
2021/05/11 06:59:03;;;;;;;10.52;9.32;;;14.70;73.30;;;;;;5185542;28;20069;-65
2021/05/11 07:01:35;;;;;;;11.57;10.32;;;14.80;72.80;;;;;;5189519;28;20099;-64
2021/05/11 07:04:08;;;;;;;10.07;9.18;;;14.80;72.90;;;;;;5186772;28;20042;-64
2021/05/11 07:06:40;;;;;;;10.45;9.38;;;14.80;72.20;;;;;;5188690;28;20089;-64
2021/05/11 07:09:16;;;;;;;10.82;9.82;;;14.90;72.50;;;;;;5185277;28;20148;-64
2021/05/11 07:14:21;;;;;;;10.15;9.15;;;15.30;72.10;;;;;;5186987;28;20048;-64
2021/05/11 07:16:55;;;;;;;10.48;9.50;;;15.50;72.30;;;;;;5189253;28;20056;-65
2021/05/11 07:19:28;;;;;;;11.70;9.55;;;15.60;71.30;;;;;;5194175;28;20046;-65
2021/05/11 07:22:00;;;;;;;11.02;9.63;;;15.80;71.80;;;;;;5193851;28;20068;-65
2021/05/11 07:24:32;;;;;;;10.90;9.80;;;15.90;71.30;;;;;;5191932;28;20088;-64
2021/05/11 07:29:52;;;;;;;11.60;10.55;;;16.30;70.20;;;;;;5191129;28;20053;-65
2021/05/11 07:32:24;;;;;;;10.73;9.10;;;16.50;70.00;;;;;;5192324;28;20076;-64
2021/05/11 07:34:57;;;;;;;10.73;9.70;;;16.50;69.10;;;;;;5193074;28;20403;-65
2021/05/11 07:37:28;;;;;;;10.73;9.73;;;16.60;68.90;;;;;;5194824;28;20795;-65
2021/05/11 07:40:00;;;;;;;10.48;9.50;;;16.60;67.80;;;;;;5198035;28;20045;-65
2021/05/11 07:42:33;;;;;;;10.45;9.38;;;16.80;69.10;;;;;;5203897;28;20061;-65
2021/05/11 07:45:10;;;;;;;10.05;9.05;;;16.90;67.60;;;;;;5202628;28;20063;-66
2021/05/11 07:50:41;;;;;;;9.43;8.52;;;17.20;66.60;;;;;;5189311;28;20037;-65
2021/05/11 08:02:01;;;;;;;9.95;9.05;;;17.50;67.70;;;;;;5197325;28;20044;-66
2021/05/11 08:04:41;;;;;;;10.48;9.45;;;17.50;66.70;;;;;;5686158;22;20056;-68
2021/05/11 08:10:28;;;;;;;9.95;8.95;;;17.50;68.00;;;;;;5220601;28;20049;-68
2021/05/11 08:30:28;;;;;;;10.43;9.32;;;17.90;68.70;;;;;;5209732;28;20046;-66
2021/05/11 08:33:04;;;;;;;10.07;8.90;;;18.00;67.40;;;;;;5219643;28;20041;-66
2021/05/11 08:35:36;;;;;;;11.77;9.55;;;18.10;68.20;;;;;;5223462;28;20106;-66
2021/05/11 08:38:08;;;;;;;9.52;8.52;;;18.20;67.20;;;;;;5204797;28;20117;-65
2021/05/11 08:40:43;;;;;;;9.95;9.05;;;18.30;64.40;;;;;;5218431;28;20041;-65
2021/05/11 08:43:45;;;;;;;10.35;9.30;;;18.30;67.90;;;;;;5215624;28;20046;-65
2021/05/11 08:46:17;;;;;;;9.32;8.52;;;18.50;65.70;;;;;;5216379;28;20053;-66
2021/05/11 08:48:52;;;;;;;10.10;9.18;;;18.50;66.20;;;;;;5212199;28;20458;-65
2021/05/11 08:51:28;;;;;;;11.18;9.75;;;18.60;64.50;;;;;;5211950;28;20057;-65
2021/05/11 09:06:22;;;;;;;10.65;9.65;;;18.50;64.70;;;;;;5221243;28;20053;-68
2021/05/11 09:15:15;;;;;;;11.23;10.13;;;19.10;67.50;;;;;;5219990;28;20043;-66
2021/05/11 09:23:44;;;;;;;12.68;11.48;;;19.60;63.50;;;;;;5191207;28;20081;-66
2021/05/11 09:26:58;;;;;;;11.68;10.48;;;19.70;65.60;;;;;;5214791;28;20452;-67
2021/05/11 10:44:56;;;;;;;11.68;10.68;;;19.30;65.40;;;;;;5211021;28;20433;-65
2021/05/11 10:47:20;;;;;;;11.73;10.48;;;19.30;64.70;;;;;;5210809;28;20048;-66
2021/05/11 10:49:52;;;;;;;11.27;10.18;;;19.20;62.80;;;;;;5211853;28;20056;-64
2021/05/11 10:52:43;;;;;;;11.20;10.20;;;19.20;63.50;;;;;;5210327;28;20048;-65
2021/05/11 10:55:25;;;;;;;11.35;10.30;;;19.20;64.50;;;;;;5211392;28;20069;-64
2021/05/11 10:58:05;;;;;;;11.90;10.70;;;19.40;64.40;;;;;;5212442;28;20135;-64
2021/05/11 11:03:21;;;;;;;11.45;10.45;;;19.70;63.00;;;;;;5207090;28;20072;-64
2021/05/11 11:06:01;;;;;;;14.88;10.77;;;19.70;63.30;;;;;;5208773;28;20056;-64
2021/05/11 11:08:43;;;;;;;11.73;10.60;;;19.90;62.30;;;;;;5207681;28;20045;-65
2021/05/11 11:11:20;;;;;;;11.07;10.07;;;20.10;59.20;;;;;;5211400;28;20660;-64
2021/05/11 11:13:54;;;;;;;10.65;9.70;;;20.20;61.40;;;;;;5214386;28;20502;-67
2021/05/11 11:16:46;;;;;;;11.02;10.07;;;20.30;58.30;;;;;;5212694;28;20045;-66
2021/05/11 11:19:18;;;;;;;10.77;9.65;;;20.30;58.70;;;;;;5209877;28;20123;-65
2021/05/11 11:24:25;;;;;;;9.77;8.95;;;20.50;57.80;;;;;;5210409;28;20064;-65
2021/05/11 11:26:59;;;;;;;10.40;9.50;;;20.60;58.80;;;;;;5205116;28;20577;-64
2021/05/11 11:29:31;;;;;;;10.40;9.48;;;20.70;61.30;;;;;;5212676;28;20091;-65
2021/05/11 11:32:03;;;;;;;10.35;9.45;;;20.70;58.30;;;;;;5205326;28;20053;-65
2021/05/11 11:34:36;;;;;;;10.48;9.30;;;20.60;58.70;;;;;;5212760;28;20560;-65
2021/05/11 11:37:14;;;;;;;10.43;9.57;;;20.50;59.30;;;;;;5209671;28;20439;-66
2021/05/11 11:39:48;;;;;;;10.35;9.45;;;20.30;59.40;;;;;;5209475;28;20052;-66
2021/05/11 11:42:25;;;;;;;10.10;9.20;;;20.10;57.80;;;;;;5216583;28;20419;-65
2021/05/11 11:45:01;;;;;;;10.55;9.63;;;20.00;59.70;;;;;;5209695;28;20044;-66
2021/05/11 11:47:42;;;;;;;10.63;9.73;;;19.90;61.00;;;;;;5210272;28;20045;-67
2021/05/11 11:50:14;;;;;;;10.80;9.85;;;19.80;60.70;;;;;;5208967;28;20552;-66
2021/05/11 11:55:40;;;;;;;10.55;9.65;;;19.70;59.10;;;;;;5208736;28;20045;-67
2021/05/11 11:58:21;;;;;;;10.27;9.38;;;19.60;60.60;;;;;;5209329;28;20076;-64
2021/05/11 12:00:53;;;;;;;9.77;8.88;;;19.60;61.00;;;;;;5208829;28;20046;-65
2021/05/11 12:03:26;;;;;;;10.65;9.68;;;19.50;60.30;;;;;;5207169;28;20406;-66
2021/05/11 12:06:00;;;;;;;10.75;9.75;;;19.40;60.90;;;;;;5208386;28;20111;-64
2021/05/11 12:08:32;;;;;;;10.27;9.48;;;19.30;60.00;;;;;;5205516;28;20060;-66
2021/05/11 12:11:06;;;;;;;10.30;9.40;;;19.30;61.40;;;;;;5209852;28;20146;-65
2021/05/11 12:13:39;;;;;;;10.50;9.60;;;19.20;61.20;;;;;;5204832;28;20048;-65
2021/05/11 12:16:17;;;;;;;11.15;10.05;;;19.10;61.30;;;;;;5214000;28;20049;-65
2021/05/11 12:19:09;;;;;;;11.07;9.98;;;19.00;61.90;;;;;;5208452;28;20045;-65
2021/05/11 12:22:03;;;;;;;11.90;10.68;;;19.00;63.00;;;;;;5197819;28;20045;-65
2021/05/11 12:24:41;;;;;;;10.13;9.18;;;18.90;60.10;;;;;;5208222;28;20049;-66
2021/05/11 12:27:20;;;;;;;10.38;9.45;;;18.80;62.90;;;;;;5207951;28;20043;-65
2021/05/11 12:30:00;;;;;;;9.40;8.60;;;18.70;59.90;;;;;;5209233;28;20044;-65
2021/05/11 12:32:34;;;;;;;10.15;9.35;;;18.60;59.40;;;;;;5209962;28;20040;-65
2021/05/11 12:35:11;;;;;;;9.75;8.95;;;18.40;59.10;;;;;;5208935;28;20514;-65
2021/05/11 12:37:54;;;;;;;9.60;8.80;;;18.20;59.60;;;;;;5212160;28;20194;-65
2021/05/11 12:40:41;;;;;;;9.88;8.98;;;18.00;59.70;;;;;;5205864;28;20114;-66
2021/05/11 12:43:13;;;;;;;10.35;9.38;;;17.70;61.10;;;;;;5209002;28;20527;-67
2021/05/11 12:45:52;;;;;;;11.07;10.07;;;17.60;61.80;;;;;;5214551;28;20041;-66
2021/05/11 12:48:25;;;;;;;10.05;9.25;;;17.50;62.50;;;;;;5209383;28;20511;-66
2021/05/11 12:50:58;;;;;;;9.43;8.55;;;17.40;62.00;;;;;;5214848;28;20192;-66
2021/05/11 12:53:47;;;;;;;10.25;9.23;;;17.30;63.30;;;;;;5213935;28;20095;-67
2021/05/11 12:57:04;;;;;;;9.70;8.90;;;17.30;64.10;;;;;;5207389;28;20494;-65
2021/05/11 12:59:51;;;;;;;9.60;8.80;;;17.20;62.30;;;;;;5207671;28;20080;-65
2021/05/11 13:20:24;;;;;;;10.40;9.60;;;16.90;68.30;;;;;;5162210;28;20125;-66
2021/05/11 13:25:53;;;;;;;;;;;16.80;69.80;;;;;;5210386;28;20049;-66
2021/05/11 13:31:17;;;;;;;11.35;10.35;;;16.70;69.10;;;;;;5207841;28;20522;-66
2021/05/11 13:34:23;;;;;;;12.90;11.80;;;16.70;69.70;;;;;;5208336;28;20545;-66
2021/05/11 13:36:48;;;;;;;11.55;10.50;;;16.60;70.70;;;;;;5204629;28;20033;-66
2021/05/11 13:39:20;;;;;;;10.38;9.48;;;16.60;70.80;;;;;;5205134;28;20069;-67
2021/05/11 13:41:53;;;;;;;11.40;10.40;;;16.40;69.50;;;;;;5215382;28;20052;-65
2021/05/11 13:44:26;;;;;;;11.95;10.95;;;16.40;69.10;;;;;;5213566;28;20111;-66
2021/05/11 13:46:58;;;;;;;12.55;11.50;;;16.40;71.10;;;;;;5213689;28;20091;-66
2021/05/11 13:49:31;;;;;;;12.63;11.50;;;16.30;71.20;;;;;;5211356;28;20040;-66
2021/05/11 13:52:04;;;;;;;12.05;11.00;;;16.30;71.10;;;;;;5205573;28;20082;-66
2021/05/11 13:54:36;;;;;;;12.57;11.48;;;16.20;71.60;;;;;;5207398;28;20077;-66
2021/05/11 14:02:49;;;;;;;12.88;11.77;;;16.00;72.80;;;;;;5210925;28;20147;-66
2021/05/11 14:05:21;;;;;;;12.68;11.57;;;15.90;73.00;;;;;;5208672;28;20511;-67
2021/05/11 14:07:53;;;;;;;12.45;11.35;;;15.90;72.60;;;;;;5209573;28;20029;-66
2021/05/11 14:10:26;;;;;;;12.20;11.20;;;15.90;72.50;;;;;;5210779;28;20052;-66
2021/05/11 14:12:58;;;;;;;12.02;11.02;;;15.80;72.50;;;;;;5214644;28;20112;-65
2021/05/11 14:15:30;;;;;;;13.50;12.20;;;15.80;73.30;;;;;;5212366;28;20470;-65
2021/05/11 14:18:02;;;;;;;12.25;11.15;;;15.60;73.80;;;;;;5209926;28;21031;-66
2021/05/11 14:20:34;;;;;;;12.30;11.30;;;15.60;74.00;;;;;;5209555;28;20045;-66
2021/05/11 14:23:06;;;;;;;20.92;18.58;;;15.60;73.30;;;;;;5212758;28;20042;-65
2021/05/11 14:25:38;;;;;;;12.57;11.38;;;15.60;74.00;;;;;;5208710;28;20033;-66
2021/05/11 14:28:10;;;;;;;12.00;10.90;;;15.60;73.70;;;;;;5211819;28;20033;-65
2021/05/11 14:30:42;;;;;;;12.52;11.43;;;15.50;74.30;;;;;;5211131;28;20037;-66
2021/05/11 14:33:14;;;;;;;14.85;13.15;;;15.50;74.40;;;;;;5210712;28;20529;-65
2021/05/11 14:35:46;;;;;;;12.60;11.50;;;15.50;74.60;;;;;;5207682;28;20124;-66
2021/05/11 14:38:18;;;;;;;11.93;10.90;;;15.50;74.50;;;;;;5210355;28;20037;-66
2021/05/11 14:40:50;;;;;;;11.88;10.88;;;15.50;74.60;;;;;;5207261;28;20637;-67
2021/05/11 14:43:23;;;;;;;12.00;10.80;;;15.50;74.70;;;;;;5218227;28;20046;-67
2021/05/11 14:45:55;;;;;;;12.02;10.93;;;15.40;74.90;;;;;;5206921;28;20519;-66
2021/05/11 14:48:27;;;;;;;12.20;11.10;;;15.40;74.60;;;;;;5211202;28;20116;-66
2021/05/11 14:51:00;;;;;;;10.90;9.98;;;15.40;74.50;;;;;;5205182;28;20671;-66
2021/05/11 14:53:32;;;;;;;11.10;10.20;;;15.30;74.60;;;;;;5193935;28;20041;-68
2021/05/11 14:56:08;;;;;;;10.80;9.80;;;15.30;75.50;;;;;;5209430;28;20099;-68
2021/05/11 14:58:40;;;;;;;9.13;8.32;;;15.30;75.10;;;;;;5216526;28;20076;-66
2021/05/11 15:01:12;;;;;;;10.38;9.38;;;15.30;74.50;;;;;;5208612;28;20099;-66
2021/05/11 15:03:44;;;;;;;8.57;7.78;;;15.20;74.80;;;;;;5211324;28;20503;-66
2021/05/11 15:06:22;;;;;;;7.57;6.88;;;15.10;73.10;;;;;;5210577;28;20110;-66
2021/05/11 15:08:56;;;;;;;7.13;6.53;;;14.90;71.10;;;;;;5208123;28;20566;-66
2021/05/11 15:11:28;;;;;;;7.05;6.45;;;14.80;70.40;;;;;;5210674;28;20503;-66
2021/05/11 15:14:00;;;;;;;7.00;6.40;;;14.70;70.10;;;;;;5208722;28;20036;-66
2021/05/11 15:16:38;;;;;;;7.13;6.53;;;14.70;71.30;;;;;;5210143;28;20041;-66
2021/05/11 15:19:10;;;;;;;7.00;6.40;;;14.80;72.80;;;;;;5205753;28;20163;-67
2021/05/11 15:21:43;;;;;;;7.00;6.40;;;14.80;71.10;;;;;;5208251;28;20049;-67
2021/05/11 15:24:15;;;;;;;6.35;5.85;;;14.80;71.10;;;;;;5208079;28;20041;-65
2021/05/11 15:26:48;;;;;;;7.15;6.55;;;14.60;70.80;;;;;;5209029;28;20045;-65
2021/05/11 15:29:20;;;;;;;7.18;6.57;;;14.70;70.90;;;;;;5207317;28;20045;-65
2021/05/11 15:31:52;;;;;;;7.38;6.78;;;14.70;71.60;;;;;;5206033;28;20041;-64
2021/05/11 15:34:25;;;;;;;7.13;6.53;;;14.70;71.20;;;;;;5207597;28;20045;-64
2021/05/11 15:37:03;;;;;;;6.95;6.35;;;14.60;70.00;;;;;;5210383;28;20507;-64
2021/05/11 15:39:35;;;;;;;7.32;6.72;;;14.60;69.50;;;;;;5208410;28;20111;-64
2021/05/11 15:42:07;;;;;;;7.30;6.60;;;14.50;68.30;;;;;;5209670;28;20041;-64
2021/05/11 15:44:39;;;;;;;6.90;6.30;;;14.40;67.90;;;;;;5211834;28;20045;-65
2021/05/11 15:47:15;;;;;;;7.13;6.53;;;14.30;67.90;;;;;;5215302;28;20051;-65
2021/05/11 15:49:47;;;;;;;7.07;6.47;;;14.20;68.70;;;;;;5212124;28;20427;-65
2021/05/11 15:52:19;;;;;;;6.97;6.38;;;14.10;68.90;;;;;;5211358;28;20095;-65
2021/05/11 15:54:51;;;;;;;7.50;6.90;;;14.10;70.00;;;;;;5210381;28;20100;-64
2021/05/11 15:57:23;;;;;;;7.35;6.75;;;14.10;70.50;;;;;;5203916;28;20056;-65
2021/05/11 15:59:55;;;;;;;7.57;6.97;;;14.10;69.60;;;;;;5212391;28;20080;-64
2021/05/11 16:02:27;;;;;;;7.40;6.80;;;14.00;69.50;;;;;;5208068;28;20052;-65
2021/05/11 16:04:59;;;;;;;7.90;7.20;;;14.00;70.40;;;;;;5211781;28;20049;-65
2021/05/11 16:07:30;;;;;;;8.05;7.32;;;14.00;70.90;;;;;;5207875;28;20042;-65
2021/05/11 16:10:04;;;;;;;7.68;7.07;;;13.90;70.50;;;;;;5204489;28;20037;-65
2021/05/11 16:12:37;;;;;;;7.63;7.03;;;13.80;71.00;;;;;;5207388;28;20102;-65
2021/05/11 16:15:18;;;;;;;8.18;7.45;;;13.70;69.60;;;;;;5206684;28;20040;-66
2021/05/11 16:17:50;;;;;;;7.72;7.10;;;13.60;70.70;;;;;;5209605;28;20055;-66
2021/05/11 16:20:23;;;;;;;8.40;7.70;;;13.60;71.90;;;;;;5208790;28;20040;-65
2021/05/11 16:22:55;;;;;;;7.70;7.00;;;13.60;71.10;;;;;;5209153;28;20471;-64
2021/05/11 16:25:27;;;;;;;8.30;7.60;;;13.40;72.30;;;;;;5208294;28;20052;-66
2021/05/11 16:28:03;;;;;;;7.80;7.20;;;13.40;73.20;;;;;;5204239;28;20041;-66
2021/05/11 16:30:38;;;;;;;8.48;7.78;;;13.50;73.80;;;;;;5205648;28;20061;-65
2021/05/11 16:33:12;;;;;;;7.50;6.85;;;13.50;73.10;;;;;;5205808;28;20430;-65
2021/05/11 16:35:44;;;;;;;8.40;7.70;;;13.40;73.60;;;;;;5201250;28;20057;-66
2021/05/11 16:38:16;;;;;;;8.20;7.50;;;13.40;73.20;;;;;;5206934;28;20780;-65
2021/05/11 16:40:49;;;;;;;8.55;7.85;;;13.40;74.80;;;;;;5190869;28;20038;-67
2021/05/11 16:43:23;;;;;;;8.35;7.65;;;13.30;74.50;;;;;;5213438;28;20111;-65
2021/05/11 16:45:56;;;;;;;8.68;7.97;;;13.30;74.60;;;;;;5204604;28;20048;-65
2021/05/11 16:48:29;;;;;;;7.80;7.18;;;13.30;74.80;;;;;;5212645;28;20107;-67
2021/05/11 16:51:01;;;;;;;8.55;7.85;;;13.40;75.00;;;;;;5205862;28;20045;-68
2021/05/11 16:53:33;;;;;;;8.20;7.50;;;13.40;74.90;;;;;;5207652;28;20033;-67
2021/05/11 16:56:05;;;;;;;8.32;7.63;;;13.40;74.40;;;;;;5205604;28;20042;-69
2021/05/11 16:58:37;;;;;;;8.13;7.43;;;13.30;74.50;;;;;;5205847;28;20045;-67
2021/05/11 17:01:09;;;;;;;8.77;7.88;;;13.30;74.50;;;;;;5206914;28;20486;-69
2021/05/11 17:03:41;;;;;;;8.45;7.70;;;13.30;74.20;;;;;;5206720;28;20414;-68
2021/05/11 17:06:13;;;;;;;8.50;7.60;;;13.30;74.60;;;;;;5222900;28;20051;-69
2021/05/11 17:08:45;;;;;;;7.53;6.93;;;13.30;74.50;;;;;;5206868;28;20037;-67
2021/05/11 17:11:17;;;;;;;7.93;7.22;;;13.30;75.00;;;;;;5206864;28;20504;-68
2021/05/11 17:13:49;;;;;;;8.60;7.80;;;13.20;75.50;;;;;;5205815;28;20670;-67
2021/05/11 17:16:21;;;;;;;8.38;7.60;;;13.20;75.30;;;;;;5205602;28;20041;-67
2021/05/11 17:18:53;;;;;;;8.80;8.10;;;13.20;75.80;;;;;;5209080;28;20407;-67